sensor_id;sensor_type;location;lat;lon;timestamp;P1;durP1;ratioP1;P2;durP2;ratioP2
69532;SDS011;56729;52.036;5.332;2023-10-09T00:00:26;52.10;;;21.80;;
69532;SDS011;56729;52.036;5.332;2023-10-09T00:01:52;49.45;;;20.48;;
69532;SDS011;56729;52.036;5.332;2023-10-09T00:02:55;52.15;;;21.05;;
69532;SDS011;56729;52.036;5.332;2023-10-09T00:03:57;61.10;;;22.13;;
69532;SDS011;56729;52.036;5.332;2023-10-09T00:05:02;90.65;;;22.50;;
69532;SDS011;56729;52.036;5.332;2023-10-09T00:06:12;74.63;;;22.00;;
69532;SDS011;56729;52.036;5.332;2023-10-09T00:07:15;66.72;;;22.27;;
69532;SDS011;56729;52.036;5.332;2023-10-09T00:08:19;68.00;;;24.98;;
69532;SDS011;56729;52.036;5.332;2023-10-09T00:09:28;64.75;;;24.30;;
69532;SDS011;56729;52.036;5.332;2023-10-09T00:10:34;55.72;;;22.02;;
69532;SDS011;56729;52.036;5.332;2023-10-09T00:11:39;50.33;;;21.65;;
69532;SDS011;56729;52.036;5.332;2023-10-09T00:12:45;48.38;;;21.65;;
69532;SDS011;56729;52.036;5.332;2023-10-09T00:13:50;48.72;;;22.63;;
69532;SDS011;56729;52.036;5.332;2023-10-09T00:14:59;52.28;;;20.63;;
69532;SDS011;56729;52.036;5.332;2023-10-09T00:16:11;71.20;;;22.25;;
69532;SDS011;56729;52.036;5.332;2023-10-09T00:17:18;63.20;;;23.50;;
69532;SDS011;56729;52.036;5.332;2023-10-09T00:18:23;70.95;;;21.63;;
69532;SDS011;56729;52.036;5.332;2023-10-09T00:19:31;73.18;;;21.73;;
69532;SDS011;56729;52.036;5.332;2023-10-09T00:20:36;54.55;;;21.35;;
69532;SDS011;56729;52.036;5.332;2023-10-09T00:21:44;60.63;;;22.83;;
69532;SDS011;56729;52.036;5.332;2023-10-09T00:22:46;67.50;;;22.85;;
69532;SDS011;56729;52.036;5.332;2023-10-09T00:23:48;78.75;;;22.88;;
69532;SDS011;56729;52.036;5.332;2023-10-09T00:25:00;69.13;;;23.08;;
69532;SDS011;56729;52.036;5.332;2023-10-09T00:26:12;46.55;;;21.48;;
69532;SDS011;56729;52.036;5.332;2023-10-09T00:27:23;46.42;;;21.23;;
69532;SDS011;56729;52.036;5.332;2023-10-09T00:28:25;44.53;;;20.17;;
69532;SDS011;56729;52.036;5.332;2023-10-09T00:29:27;50.22;;;21.67;;
69532;SDS011;56729;52.036;5.332;2023-10-09T00:30:40;45.40;;;21.40;;
69532;SDS011;56729;52.036;5.332;2023-10-09T00:31:43;39.17;;;19.60;;
69532;SDS011;56729;52.036;5.332;2023-10-09T00:32:51;56.80;;;21.80;;
69532;SDS011;56729;52.036;5.332;2023-10-09T00:34:03;76.68;;;23.30;;
69532;SDS011;56729;52.036;5.332;2023-10-09T00:35:08;74.13;;;23.35;;
69532;SDS011;56729;52.036;5.332;2023-10-09T00:36:36;50.92;;;21.23;;
69532;SDS011;56729;52.036;5.332;2023-10-09T00:37:52;55.50;;;23.92;;
69532;SDS011;56729;52.036;5.332;2023-10-09T00:38:58;47.22;;;21.63;;
69532;SDS011;56729;52.036;5.332;2023-10-09T00:40:03;42.63;;;20.37;;
69532;SDS011;56729;52.036;5.332;2023-10-09T00:41:14;48.78;;;21.23;;
69532;SDS011;56729;52.036;5.332;2023-10-09T00:42:22;69.38;;;22.33;;
69532;SDS011;56729;52.036;5.332;2023-10-09T00:43:31;73.18;;;25.02;;
69532;SDS011;56729;52.036;5.332;2023-10-09T00:44:36;51.10;;;22.40;;
69532;SDS011;56729;52.036;5.332;2023-10-09T00:45:43;53.92;;;24.67;;
69532;SDS011;56729;52.036;5.332;2023-10-09T00:46:46;47.05;;;20.65;;
69532;SDS011;56729;52.036;5.332;2023-10-09T00:47:49;51.30;;;21.77;;
69532;SDS011;56729;52.036;5.332;2023-10-09T00:48:52;59.10;;;22.25;;
69532;SDS011;56729;52.036;5.332;2023-10-09T00:49:58;66.30;;;22.30;;
69532;SDS011;56729;52.036;5.332;2023-10-09T00:51:02;56.33;;;21.93;;
69532;SDS011;56729;52.036;5.332;2023-10-09T00:52:17;70.90;;;23.23;;
69532;SDS011;56729;52.036;5.332;2023-10-09T00:53:26;67.03;;;23.20;;
69532;SDS011;56729;52.036;5.332;2023-10-09T00:54:32;55.47;;;22.58;;
69532;SDS011;56729;52.036;5.332;2023-10-09T00:55:42;72.72;;;25.40;;
69532;SDS011;56729;52.036;5.332;2023-10-09T00:56:44;54.35;;;23.52;;
69532;SDS011;56729;52.036;5.332;2023-10-09T00:57:54;64.47;;;22.58;;
69532;SDS011;56729;52.036;5.332;2023-10-09T00:59:01;72.03;;;25.00;;
69532;SDS011;56729;52.036;5.332;2023-10-09T01:00:21;66.32;;;23.70;;
69532;SDS011;56729;52.036;5.332;2023-10-09T01:01:47;58.55;;;23.35;;
69532;SDS011;56729;52.036;5.332;2023-10-09T01:03:04;49.97;;;21.07;;
69532;SDS011;56729;52.036;5.332;2023-10-09T01:04:19;65.57;;;22.10;;
69532;SDS011;56729;52.036;5.332;2023-10-09T01:05:22;73.28;;;23.05;;
69532;SDS011;56729;52.036;5.332;2023-10-09T01:06:27;68.13;;;23.25;;
69532;SDS011;56729;52.036;5.332;2023-10-09T01:07:31;62.17;;;23.52;;
69532;SDS011;56729;52.036;5.332;2023-10-09T01:08:34;63.83;;;23.58;;
69532;SDS011;56729;52.036;5.332;2023-10-09T01:09:47;57.33;;;22.95;;
69532;SDS011;56729;52.036;5.332;2023-10-09T01:10:52;66.63;;;23.13;;
69532;SDS011;56729;52.036;5.332;2023-10-09T01:11:57;70.78;;;24.02;;
69532;SDS011;56729;52.036;5.332;2023-10-09T01:13:02;72.88;;;24.63;;
69532;SDS011;56729;52.036;5.332;2023-10-09T01:14:04;78.40;;;23.30;;
69532;SDS011;56729;52.036;5.332;2023-10-09T01:15:09;64.43;;;23.58;;
69532;SDS011;56729;52.036;5.332;2023-10-09T01:16:19;51.80;;;22.38;;
69532;SDS011;56729;52.036;5.332;2023-10-09T01:17:24;44.78;;;22.13;;
69532;SDS011;56729;52.036;5.332;2023-10-09T01:18:38;47.25;;;21.70;;
69532;SDS011;56729;52.036;5.332;2023-10-09T01:19:42;49.13;;;23.63;;
69532;SDS011;56729;52.036;5.332;2023-10-09T01:20:45;56.38;;;22.35;;
69532;SDS011;56729;52.036;5.332;2023-10-09T01:21:47;69.15;;;23.10;;
69532;SDS011;56729;52.036;5.332;2023-10-09T01:22:49;57.58;;;22.85;;
69532;SDS011;56729;52.036;5.332;2023-10-09T01:23:54;55.85;;;24.10;;
69532;SDS011;56729;52.036;5.332;2023-10-09T01:25:06;55.33;;;22.90;;
69532;SDS011;56729;52.036;5.332;2023-10-09T01:26:08;64.13;;;21.88;;
69532;SDS011;56729;52.036;5.332;2023-10-09T01:27:10;67.85;;;22.98;;
69532;SDS011;56729;52.036;5.332;2023-10-09T01:28:18;67.28;;;22.60;;
69532;SDS011;56729;52.036;5.332;2023-10-09T01:29:20;58.42;;;22.65;;
69532;SDS011;56729;52.036;5.332;2023-10-09T01:30:24;59.28;;;23.20;;
69532;SDS011;56729;52.036;5.332;2023-10-09T01:31:26;58.38;;;22.08;;
69532;SDS011;56729;52.036;5.332;2023-10-09T01:32:36;68.35;;;23.33;;
69532;SDS011;56729;52.036;5.332;2023-10-09T01:33:38;67.88;;;22.90;;
69532;SDS011;56729;52.036;5.332;2023-10-09T01:34:40;72.80;;;24.85;;
69532;SDS011;56729;52.036;5.332;2023-10-09T01:35:52;62.90;;;22.87;;
69532;SDS011;56729;52.036;5.332;2023-10-09T01:37:00;58.80;;;23.55;;
69532;SDS011;56729;52.036;5.332;2023-10-09T01:38:06;49.88;;;22.17;;
69532;SDS011;56729;52.036;5.332;2023-10-09T01:39:14;46.65;;;22.10;;
69532;SDS011;56729;52.036;5.332;2023-10-09T01:40:27;44.38;;;22.10;;
69532;SDS011;56729;52.036;5.332;2023-10-09T01:41:38;64.13;;;22.50;;
69532;SDS011;56729;52.036;5.332;2023-10-09T01:42:48;77.65;;;23.42;;
69532;SDS011;56729;52.036;5.332;2023-10-09T01:43:50;67.45;;;25.48;;
69532;SDS011;56729;52.036;5.332;2023-10-09T01:44:58;62.80;;;22.45;;
69532;SDS011;56729;52.036;5.332;2023-10-09T01:46:00;74.57;;;25.08;;
69532;SDS011;56729;52.036;5.332;2023-10-09T01:47:07;59.83;;;22.00;;
69532;SDS011;56729;52.036;5.332;2023-10-09T01:48:09;73.05;;;23.65;;
69532;SDS011;56729;52.036;5.332;2023-10-09T01:49:13;66.88;;;23.73;;
69532;SDS011;56729;52.036;5.332;2023-10-09T01:50:23;64.43;;;22.85;;
69532;SDS011;56729;52.036;5.332;2023-10-09T01:51:36;65.25;;;24.77;;
69532;SDS011;56729;52.036;5.332;2023-10-09T01:52:40;61.85;;;23.13;;
69532;SDS011;56729;52.036;5.332;2023-10-09T01:53:44;48.95;;;22.80;;
69532;SDS011;56729;52.036;5.332;2023-10-09T01:54:50;58.35;;;21.95;;
69532;SDS011;56729;52.036;5.332;2023-10-09T01:55:53;48.70;;;22.02;;
69532;SDS011;56729;52.036;5.332;2023-10-09T01:56:57;53.60;;;23.60;;
69532;SDS011;56729;52.036;5.332;2023-10-09T01:57:58;59.67;;;23.80;;
69532;SDS011;56729;52.036;5.332;2023-10-09T01:59:29;52.80;;;23.35;;
69532;SDS011;56729;52.036;5.332;2023-10-09T02:00:31;43.55;;;21.55;;
69532;SDS011;56729;52.036;5.332;2023-10-09T02:01:45;59.65;;;22.52;;
69532;SDS011;56729;52.036;5.332;2023-10-09T02:02:49;45.90;;;21.08;;
69532;SDS011;56729;52.036;5.332;2023-10-09T02:03:51;57.83;;;21.80;;
69532;SDS011;56729;52.036;5.332;2023-10-09T02:04:58;81.10;;;25.10;;
69532;SDS011;56729;52.036;5.332;2023-10-09T02:06:21;55.90;;;21.63;;
69532;SDS011;56729;52.036;5.332;2023-10-09T02:07:33;57.92;;;21.85;;
69532;SDS011;56729;52.036;5.332;2023-10-09T02:08:56;45.55;;;21.20;;
69532;SDS011;56729;52.036;5.332;2023-10-09T02:09:58;49.10;;;20.70;;
69532;SDS011;56729;52.036;5.332;2023-10-09T02:10:59;54.55;;;22.27;;
69532;SDS011;56729;52.036;5.332;2023-10-09T02:12:03;63.60;;;23.98;;
69532;SDS011;56729;52.036;5.332;2023-10-09T02:13:06;68.78;;;24.75;;
69532;SDS011;56729;52.036;5.332;2023-10-09T02:14:14;66.47;;;23.15;;
69532;SDS011;56729;52.036;5.332;2023-10-09T02:15:22;48.33;;;20.45;;
69532;SDS011;56729;52.036;5.332;2023-10-09T02:16:43;64.72;;;21.80;;
69532;SDS011;56729;52.036;5.332;2023-10-09T02:17:45;62.25;;;22.13;;
69532;SDS011;56729;52.036;5.332;2023-10-09T02:19:02;55.40;;;21.38;;
69532;SDS011;56729;52.036;5.332;2023-10-09T02:20:09;47.08;;;21.10;;
69532;SDS011;56729;52.036;5.332;2023-10-09T02:21:19;48.23;;;21.43;;
69532;SDS011;56729;52.036;5.332;2023-10-09T02:22:35;66.53;;;23.20;;
69532;SDS011;56729;52.036;5.332;2023-10-09T02:23:38;66.22;;;22.42;;
69532;SDS011;56729;52.036;5.332;2023-10-09T02:24:42;66.22;;;23.02;;
69532;SDS011;56729;52.036;5.332;2023-10-09T02:25:58;66.47;;;23.33;;
69532;SDS011;56729;52.036;5.332;2023-10-09T02:27:04;67.55;;;23.25;;
69532;SDS011;56729;52.036;5.332;2023-10-09T02:28:10;56.58;;;22.52;;
69532;SDS011;56729;52.036;5.332;2023-10-09T02:29:19;60.35;;;21.88;;
69532;SDS011;56729;52.036;5.332;2023-10-09T02:30:25;76.03;;;23.55;;
69532;SDS011;56729;52.036;5.332;2023-10-09T02:31:30;57.70;;;22.50;;
69532;SDS011;56729;52.036;5.332;2023-10-09T02:32:42;64.97;;;22.10;;
69532;SDS011;56729;52.036;5.332;2023-10-09T02:33:46;46.83;;;21.88;;
69532;SDS011;56729;52.036;5.332;2023-10-09T02:34:48;45.90;;;23.02;;
69532;SDS011;56729;52.036;5.332;2023-10-09T02:35:52;62.88;;;22.40;;
69532;SDS011;56729;52.036;5.332;2023-10-09T02:36:54;63.47;;;23.55;;
69532;SDS011;56729;52.036;5.332;2023-10-09T02:37:59;86.13;;;24.08;;
69532;SDS011;56729;52.036;5.332;2023-10-09T02:39:01;56.78;;;21.60;;
69532;SDS011;56729;52.036;5.332;2023-10-09T02:40:07;68.65;;;22.45;;
69532;SDS011;56729;52.036;5.332;2023-10-09T02:41:10;67.88;;;23.23;;
69532;SDS011;56729;52.036;5.332;2023-10-09T02:42:14;63.35;;;22.52;;
69532;SDS011;56729;52.036;5.332;2023-10-09T02:43:16;67.40;;;23.03;;
69532;SDS011;56729;52.036;5.332;2023-10-09T02:44:20;49.38;;;21.95;;
69532;SDS011;56729;52.036;5.332;2023-10-09T02:45:26;49.42;;;21.65;;
69532;SDS011;56729;52.036;5.332;2023-10-09T02:46:36;49.55;;;21.98;;
69532;SDS011;56729;52.036;5.332;2023-10-09T02:47:38;45.28;;;21.17;;
69532;SDS011;56729;52.036;5.332;2023-10-09T02:48:41;46.60;;;19.85;;
69532;SDS011;56729;52.036;5.332;2023-10-09T02:49:52;48.40;;;20.15;;
69532;SDS011;56729;52.036;5.332;2023-10-09T02:51:02;58.33;;;23.10;;
69532;SDS011;56729;52.036;5.332;2023-10-09T02:52:04;65.15;;;22.40;;
69532;SDS011;56729;52.036;5.332;2023-10-09T02:53:09;66.47;;;23.80;;
69532;SDS011;56729;52.036;5.332;2023-10-09T02:54:13;56.47;;;20.80;;
69532;SDS011;56729;52.036;5.332;2023-10-09T02:55:26;55.33;;;23.17;;
69532;SDS011;56729;52.036;5.332;2023-10-09T02:56:30;46.65;;;20.40;;
69532;SDS011;56729;52.036;5.332;2023-10-09T02:57:39;43.72;;;19.38;;
69532;SDS011;56729;52.036;5.332;2023-10-09T02:58:43;44.30;;;21.13;;
69532;SDS011;56729;52.036;5.332;2023-10-09T02:59:45;47.70;;;20.42;;
69532;SDS011;56729;52.036;5.332;2023-10-09T03:00:47;42.38;;;20.00;;
69532;SDS011;56729;52.036;5.332;2023-10-09T03:01:50;42.25;;;20.48;;
69532;SDS011;56729;52.036;5.332;2023-10-09T03:02:55;48.53;;;20.20;;
69532;SDS011;56729;52.036;5.332;2023-10-09T03:04:03;61.75;;;20.27;;
69532;SDS011;56729;52.036;5.332;2023-10-09T03:05:07;53.03;;;20.63;;
69532;SDS011;56729;52.036;5.332;2023-10-09T03:06:14;54.13;;;21.08;;
69532;SDS011;56729;52.036;5.332;2023-10-09T03:07:30;64.75;;;20.55;;
69532;SDS011;56729;52.036;5.332;2023-10-09T03:08:32;54.38;;;21.85;;
69532;SDS011;56729;52.036;5.332;2023-10-09T03:09:35;43.50;;;21.00;;
69532;SDS011;56729;52.036;5.332;2023-10-09T03:10:37;48.75;;;21.13;;
69532;SDS011;56729;52.036;5.332;2023-10-09T03:11:40;40.10;;;19.20;;
69532;SDS011;56729;52.036;5.332;2023-10-09T03:12:43;38.00;;;19.10;;
69532;SDS011;56729;52.036;5.332;2023-10-09T03:13:45;50.75;;;20.58;;
69532;SDS011;56729;52.036;5.332;2023-10-09T03:14:49;36.47;;;19.48;;
69532;SDS011;56729;52.036;5.332;2023-10-09T03:15:52;35.93;;;19.00;;
69532;SDS011;56729;52.036;5.332;2023-10-09T03:16:57;35.00;;;19.35;;
69532;SDS011;56729;52.036;5.332;2023-10-09T03:18:00;44.50;;;18.98;;
69532;SDS011;56729;52.036;5.332;2023-10-09T03:19:09;50.35;;;19.88;;
69532;SDS011;56729;52.036;5.332;2023-10-09T03:20:12;65.22;;;21.15;;
69532;SDS011;56729;52.036;5.332;2023-10-09T03:21:15;51.20;;;20.60;;
69532;SDS011;56729;52.036;5.332;2023-10-09T03:22:18;57.63;;;19.88;;
69532;SDS011;56729;52.036;5.332;2023-10-09T03:23:20;43.22;;;20.02;;
69532;SDS011;56729;52.036;5.332;2023-10-09T03:24:22;44.35;;;20.10;;
69532;SDS011;56729;52.036;5.332;2023-10-09T03:25:25;40.63;;;19.13;;
69532;SDS011;56729;52.036;5.332;2023-10-09T03:26:28;42.03;;;19.90;;
69532;SDS011;56729;52.036;5.332;2023-10-09T03:27:32;37.60;;;18.80;;
69532;SDS011;56729;52.036;5.332;2023-10-09T03:28:35;38.08;;;19.20;;
69532;SDS011;56729;52.036;5.332;2023-10-09T03:29:37;40.83;;;19.80;;
69532;SDS011;56729;52.036;5.332;2023-10-09T03:30:39;45.03;;;20.67;;
69532;SDS011;56729;52.036;5.332;2023-10-09T03:31:45;35.05;;;18.65;;
69532;SDS011;56729;52.036;5.332;2023-10-09T03:32:48;35.55;;;17.77;;
69532;SDS011;56729;52.036;5.332;2023-10-09T03:33:53;33.47;;;17.63;;
69532;SDS011;56729;52.036;5.332;2023-10-09T03:34:55;37.13;;;18.25;;
69532;SDS011;56729;52.036;5.332;2023-10-09T03:36:00;36.35;;;17.10;;
69532;SDS011;56729;52.036;5.332;2023-10-09T03:37:02;48.67;;;18.33;;
69532;SDS011;56729;52.036;5.332;2023-10-09T03:38:13;38.40;;;19.88;;
69532;SDS011;56729;52.036;5.332;2023-10-09T03:39:17;48.60;;;19.35;;
69532;SDS011;56729;52.036;5.332;2023-10-09T03:40:41;52.40;;;19.42;;
69532;SDS011;56729;52.036;5.332;2023-10-09T03:41:44;43.35;;;18.33;;
69532;SDS011;56729;52.036;5.332;2023-10-09T03:42:48;34.42;;;18.45;;
69532;SDS011;56729;52.036;5.332;2023-10-09T03:43:50;47.92;;;19.63;;
69532;SDS011;56729;52.036;5.332;2023-10-09T03:44:52;45.67;;;19.45;;
69532;SDS011;56729;52.036;5.332;2023-10-09T03:45:55;43.83;;;18.77;;
69532;SDS011;56729;52.036;5.332;2023-10-09T03:46:58;37.30;;;18.15;;
69532;SDS011;56729;52.036;5.332;2023-10-09T03:48:00;34.07;;;16.40;;
69532;SDS011;56729;52.036;5.332;2023-10-09T03:49:24;50.08;;;19.30;;
69532;SDS011;56729;52.036;5.332;2023-10-09T03:50:27;40.38;;;19.05;;
69532;SDS011;56729;52.036;5.332;2023-10-09T03:51:39;36.75;;;17.80;;
69532;SDS011;56729;52.036;5.332;2023-10-09T03:52:41;37.03;;;18.83;;
69532;SDS011;56729;52.036;5.332;2023-10-09T03:53:43;37.20;;;18.73;;
69532;SDS011;56729;52.036;5.332;2023-10-09T03:54:45;42.40;;;18.48;;
69532;SDS011;56729;52.036;5.332;2023-10-09T03:55:48;35.28;;;19.13;;
69532;SDS011;56729;52.036;5.332;2023-10-09T03:56:50;44.08;;;18.05;;
69532;SDS011;56729;52.036;5.332;2023-10-09T03:57:52;38.88;;;21.15;;
69532;SDS011;56729;52.036;5.332;2023-10-09T03:58:55;34.43;;;19.53;;
69532;SDS011;56729;52.036;5.332;2023-10-09T03:59:57;38.58;;;19.65;;
69532;SDS011;56729;52.036;5.332;2023-10-09T04:00:59;37.10;;;19.20;;
69532;SDS011;56729;52.036;5.332;2023-10-09T04:02:01;38.25;;;20.00;;
69532;SDS011;56729;52.036;5.332;2023-10-09T04:03:06;35.88;;;19.33;;
69532;SDS011;56729;52.036;5.332;2023-10-09T04:04:08;42.58;;;19.83;;
69532;SDS011;56729;52.036;5.332;2023-10-09T04:05:12;34.72;;;19.20;;
69532;SDS011;56729;52.036;5.332;2023-10-09T04:06:14;38.92;;;19.13;;
69532;SDS011;56729;52.036;5.332;2023-10-09T04:07:19;40.80;;;20.75;;
69532;SDS011;56729;52.036;5.332;2023-10-09T04:08:23;48.88;;;21.67;;
69532;SDS011;56729;52.036;5.332;2023-10-09T04:09:31;42.70;;;20.07;;
69532;SDS011;56729;52.036;5.332;2023-10-09T04:10:41;39.85;;;19.40;;
69532;SDS011;56729;52.036;5.332;2023-10-09T04:11:57;38.67;;;17.65;;
69532;SDS011;56729;52.036;5.332;2023-10-09T04:13:12;36.50;;;17.52;;
69532;SDS011;56729;52.036;5.332;2023-10-09T04:14:18;33.75;;;17.58;;
69532;SDS011;56729;52.036;5.332;2023-10-09T04:15:26;44.58;;;19.77;;
69532;SDS011;56729;52.036;5.332;2023-10-09T04:16:32;34.95;;;18.33;;
69532;SDS011;56729;52.036;5.332;2023-10-09T04:17:36;43.15;;;20.17;;
69532;SDS011;56729;52.036;5.332;2023-10-09T04:18:44;35.83;;;18.92;;
69532;SDS011;56729;52.036;5.332;2023-10-09T04:19:46;49.30;;;20.55;;
69532;SDS011;56729;52.036;5.332;2023-10-09T04:21:11;36.33;;;18.00;;
69532;SDS011;56729;52.036;5.332;2023-10-09T04:22:36;36.10;;;18.75;;
69532;SDS011;56729;52.036;5.332;2023-10-09T04:23:51;31.05;;;16.70;;
69532;SDS011;56729;52.036;5.332;2023-10-09T04:25:12;33.25;;;17.73;;
69532;SDS011;56729;52.036;5.332;2023-10-09T04:26:18;35.85;;;16.25;;
69532;SDS011;56729;52.036;5.332;2023-10-09T04:27:22;30.48;;;18.20;;
69532;SDS011;56729;52.036;5.332;2023-10-09T04:28:28;34.70;;;16.85;;
69532;SDS011;56729;52.036;5.332;2023-10-09T04:29:31;33.83;;;18.02;;
69532;SDS011;56729;52.036;5.332;2023-10-09T04:30:48;32.08;;;18.00;;
69532;SDS011;56729;52.036;5.332;2023-10-09T04:31:57;53.10;;;19.48;;
69532;SDS011;56729;52.036;5.332;2023-10-09T04:33:02;29.83;;;17.77;;
69532;SDS011;56729;52.036;5.332;2023-10-09T04:34:13;34.78;;;17.40;;
69532;SDS011;56729;52.036;5.332;2023-10-09T04:35:24;34.00;;;17.48;;
69532;SDS011;56729;52.036;5.332;2023-10-09T04:36:28;33.33;;;16.88;;
69532;SDS011;56729;52.036;5.332;2023-10-09T04:37:39;42.72;;;20.05;;
69532;SDS011;56729;52.036;5.332;2023-10-09T04:38:41;44.45;;;18.58;;
69532;SDS011;56729;52.036;5.332;2023-10-09T04:40:08;45.38;;;19.33;;
69532;SDS011;56729;52.036;5.332;2023-10-09T04:41:36;44.45;;;19.17;;
69532;SDS011;56729;52.036;5.332;2023-10-09T04:42:43;54.20;;;20.35;;
69532;SDS011;56729;52.036;5.332;2023-10-09T04:43:59;38.35;;;18.35;;
69532;SDS011;56729;52.036;5.332;2023-10-09T04:45:21;32.00;;;16.70;;
69532;SDS011;56729;52.036;5.332;2023-10-09T04:46:44;33.53;;;16.45;;
69532;SDS011;56729;52.036;5.332;2023-10-09T04:48:06;34.60;;;16.95;;
69532;SDS011;56729;52.036;5.332;2023-10-09T04:49:12;34.60;;;17.02;;
69532;SDS011;56729;52.036;5.332;2023-10-09T04:50:28;39.08;;;18.48;;
69532;SDS011;56729;52.036;5.332;2023-10-09T04:51:30;33.13;;;17.55;;
69532;SDS011;56729;52.036;5.332;2023-10-09T04:52:57;46.55;;;17.13;;
69532;SDS011;56729;52.036;5.332;2023-10-09T04:54:14;33.67;;;17.80;;
69532;SDS011;56729;52.036;5.332;2023-10-09T04:55:34;43.67;;;17.70;;
69532;SDS011;56729;52.036;5.332;2023-10-09T04:56:43;39.17;;;18.23;;
69532;SDS011;56729;52.036;5.332;2023-10-09T04:57:54;28.47;;;15.83;;
69532;SDS011;56729;52.036;5.332;2023-10-09T04:59:03;30.45;;;16.65;;
69532;SDS011;56729;52.036;5.332;2023-10-09T05:00:08;30.30;;;16.00;;
69532;SDS011;56729;52.036;5.332;2023-10-09T05:01:43;34.92;;;19.48;;
69532;SDS011;56729;52.036;5.332;2023-10-09T05:03:00;30.63;;;17.25;;
69532;SDS011;56729;52.036;5.332;2023-10-09T05:04:28;32.85;;;18.65;;
69532;SDS011;56729;52.036;5.332;2023-10-09T05:05:39;32.42;;;16.42;;
69532;SDS011;56729;52.036;5.332;2023-10-09T05:06:46;39.20;;;17.20;;
69532;SDS011;56729;52.036;5.332;2023-10-09T05:07:56;34.10;;;17.00;;
69532;SDS011;56729;52.036;5.332;2023-10-09T05:08:58;37.45;;;17.38;;
69532;SDS011;56729;52.036;5.332;2023-10-09T05:10:09;31.87;;;17.17;;
69532;SDS011;56729;52.036;5.332;2023-10-09T05:11:17;31.90;;;17.92;;
69532;SDS011;56729;52.036;5.332;2023-10-09T05:12:48;34.58;;;17.88;;
69532;SDS011;56729;52.036;5.332;2023-10-09T05:13:58;33.92;;;17.48;;
69532;SDS011;56729;52.036;5.332;2023-10-09T05:15:13;31.42;;;17.17;;
69532;SDS011;56729;52.036;5.332;2023-10-09T05:16:16;37.00;;;18.08;;
69532;SDS011;56729;52.036;5.332;2023-10-09T05:17:30;34.08;;;17.33;;
69532;SDS011;56729;52.036;5.332;2023-10-09T05:18:35;34.05;;;16.50;;
69532;SDS011;56729;52.036;5.332;2023-10-09T05:19:40;34.05;;;16.92;;
69532;SDS011;56729;52.036;5.332;2023-10-09T05:20:56;38.75;;;16.73;;
69532;SDS011;56729;52.036;5.332;2023-10-09T05:22:10;32.57;;;17.53;;
69532;SDS011;56729;52.036;5.332;2023-10-09T05:23:31;33.10;;;15.65;;
69532;SDS011;56729;52.036;5.332;2023-10-09T05:24:45;29.70;;;15.65;;
69532;SDS011;56729;52.036;5.332;2023-10-09T05:25:48;28.70;;;15.20;;
69532;SDS011;56729;52.036;5.332;2023-10-09T05:27:00;28.00;;;16.13;;
69532;SDS011;56729;52.036;5.332;2023-10-09T05:28:34;26.58;;;14.48;;
69532;SDS011;56729;52.036;5.332;2023-10-09T05:29:53;28.05;;;15.00;;
69532;SDS011;56729;52.036;5.332;2023-10-09T05:31:01;26.52;;;15.77;;
69532;SDS011;56729;52.036;5.332;2023-10-09T05:32:09;24.15;;;13.35;;
69532;SDS011;56729;52.036;5.332;2023-10-09T05:33:14;30.95;;;14.55;;
69532;SDS011;56729;52.036;5.332;2023-10-09T05:34:29;28.40;;;14.73;;
69532;SDS011;56729;52.036;5.332;2023-10-09T05:35:35;34.83;;;15.57;;
69532;SDS011;56729;52.036;5.332;2023-10-09T05:37:04;32.65;;;15.05;;
69532;SDS011;56729;52.036;5.332;2023-10-09T05:38:25;31.85;;;16.08;;
69532;SDS011;56729;52.036;5.332;2023-10-09T05:39:26;41.70;;;17.48;;
69532;SDS011;56729;52.036;5.332;2023-10-09T05:40:42;28.55;;;16.02;;
69532;SDS011;56729;52.036;5.332;2023-10-09T05:41:47;29.58;;;15.13;;
69532;SDS011;56729;52.036;5.332;2023-10-09T05:43:01;23.58;;;14.18;;
69532;SDS011;56729;52.036;5.332;2023-10-09T05:44:05;24.85;;;14.85;;
69532;SDS011;56729;52.036;5.332;2023-10-09T05:45:26;24.65;;;15.10;;
69532;SDS011;56729;52.036;5.332;2023-10-09T05:46:51;31.37;;;14.83;;
69532;SDS011;56729;52.036;5.332;2023-10-09T05:48:12;32.90;;;15.88;;
69532;SDS011;56729;52.036;5.332;2023-10-09T05:49:14;28.13;;;14.95;;
69532;SDS011;56729;52.036;5.332;2023-10-09T05:50:26;34.17;;;14.52;;
69532;SDS011;56729;52.036;5.332;2023-10-09T05:51:29;25.42;;;13.25;;
69532;SDS011;56729;52.036;5.332;2023-10-09T05:52:43;26.45;;;14.23;;
69532;SDS011;56729;52.036;5.332;2023-10-09T05:53:54;31.13;;;15.00;;
69532;SDS011;56729;52.036;5.332;2023-10-09T05:55:34;26.77;;;14.27;;
69532;SDS011;56729;52.036;5.332;2023-10-09T05:56:54;26.13;;;13.68;;
69532;SDS011;56729;52.036;5.332;2023-10-09T05:58:15;27.17;;;13.60;;
69532;SDS011;56729;52.036;5.332;2023-10-09T05:59:36;34.33;;;15.63;;
69532;SDS011;56729;52.036;5.332;2023-10-09T06:00:56;34.75;;;15.95;;
69532;SDS011;56729;52.036;5.332;2023-10-09T06:02:17;40.13;;;15.27;;
69532;SDS011;56729;52.036;5.332;2023-10-09T06:03:52;42.40;;;16.10;;
69532;SDS011;56729;52.036;5.332;2023-10-09T06:05:06;38.55;;;17.15;;
69532;SDS011;56729;52.036;5.332;2023-10-09T06:06:21;29.35;;;13.93;;
69532;SDS011;56729;52.036;5.332;2023-10-09T06:07:36;46.50;;;15.23;;
69532;SDS011;56729;52.036;5.332;2023-10-09T06:09:05;45.30;;;15.80;;
69532;SDS011;56729;52.036;5.332;2023-10-09T06:10:17;42.75;;;17.85;;
69532;SDS011;56729;52.036;5.332;2023-10-09T06:11:21;36.80;;;16.17;;
69532;SDS011;56729;52.036;5.332;2023-10-09T06:12:37;29.73;;;14.17;;
69532;SDS011;56729;52.036;5.332;2023-10-09T06:13:45;32.67;;;14.70;;
69532;SDS011;56729;52.036;5.332;2023-10-09T06:14:48;40.53;;;16.40;;
69532;SDS011;56729;52.036;5.332;2023-10-09T06:16:00;44.03;;;15.75;;
69532;SDS011;56729;52.036;5.332;2023-10-09T06:17:21;56.63;;;16.85;;
69532;SDS011;56729;52.036;5.332;2023-10-09T06:18:28;40.45;;;16.58;;
69532;SDS011;56729;52.036;5.332;2023-10-09T06:19:35;41.30;;;16.13;;
69532;SDS011;56729;52.036;5.332;2023-10-09T06:20:46;37.60;;;15.88;;
69532;SDS011;56729;52.036;5.332;2023-10-09T06:22:10;26.25;;;13.40;;
69532;SDS011;56729;52.036;5.332;2023-10-09T06:23:31;30.88;;;15.45;;
69532;SDS011;56729;52.036;5.332;2023-10-09T06:24:51;27.70;;;14.10;;
69532;SDS011;56729;52.036;5.332;2023-10-09T06:25:53;34.03;;;15.52;;
69532;SDS011;56729;52.036;5.332;2023-10-09T06:27:10;30.58;;;15.63;;
69532;SDS011;56729;52.036;5.332;2023-10-09T06:28:25;32.50;;;15.77;;
69532;SDS011;56729;52.036;5.332;2023-10-09T06:29:34;39.03;;;16.27;;
69532;SDS011;56729;52.036;5.332;2023-10-09T06:30:38;42.35;;;15.27;;
69532;SDS011;56729;52.036;5.332;2023-10-09T06:31:46;41.78;;;16.25;;
69532;SDS011;56729;52.036;5.332;2023-10-09T06:32:59;30.88;;;14.63;;
69532;SDS011;56729;52.036;5.332;2023-10-09T06:34:04;28.73;;;15.00;;
69532;SDS011;56729;52.036;5.332;2023-10-09T06:35:10;29.27;;;13.77;;
69532;SDS011;56729;52.036;5.332;2023-10-09T06:36:20;28.57;;;12.90;;
69532;SDS011;56729;52.036;5.332;2023-10-09T06:37:32;26.42;;;13.00;;
69532;SDS011;56729;52.036;5.332;2023-10-09T06:38:36;21.98;;;11.70;;
69532;SDS011;56729;52.036;5.332;2023-10-09T06:40:01;29.25;;;12.70;;
69532;SDS011;56729;52.036;5.332;2023-10-09T06:41:32;30.92;;;13.32;;
69532;SDS011;56729;52.036;5.332;2023-10-09T06:42:39;34.83;;;13.45;;